sensor_id;sensor_type;location;lat;lon;timestamp;temperature;humidity
3701;DHT22;1866;48.374;10.766;2022-12-18T00:00:53;-5.10;99.90
3701;DHT22;1866;48.374;10.766;2022-12-18T00:03:27;-5.10;99.90
3701;DHT22;1866;48.374;10.766;2022-12-18T00:06:14;-5.20;99.90
3701;DHT22;1866;48.374;10.766;2022-12-18T00:08:44;-5.20;99.90
3701;DHT22;1866;48.374;10.766;2022-12-18T00:11:24;-5.20;99.90
3701;DHT22;1866;48.374;10.766;2022-12-18T00:14:12;-5.20;99.90
3701;DHT22;1866;48.374;10.766;2022-12-18T00:16:44;-5.00;99.90
3701;DHT22;1866;48.374;10.766;2022-12-18T00:19:24;-5.10;99.90
3701;DHT22;1866;48.374;10.766;2022-12-18T00:21:51;-4.90;99.90
3701;DHT22;1866;48.374;10.766;2022-12-18T00:24:20;-4.70;99.90
3701;DHT22;1866;48.374;10.766;2022-12-18T00:26:47;-4.70;99.90
3701;DHT22;1866;48.374;10.766;2022-12-18T00:29:20;-4.80;99.90
3701;DHT22;1866;48.374;10.766;2022-12-18T00:31:50;-4.60;99.90
3701;DHT22;1866;48.374;10.766;2022-12-18T00:34:29;-4.90;99.90
3701;DHT22;1866;48.374;10.766;2022-12-18T00:37:21;-4.90;99.90
3701;DHT22;1866;48.374;10.766;2022-12-18T00:40:00;-4.60;99.90
3701;DHT22;1866;48.374;10.766;2022-12-18T00:42:27;-4.70;99.90
3701;DHT22;1866;48.374;10.766;2022-12-18T00:45:30;-4.60;99.90
3701;DHT22;1866;48.374;10.766;2022-12-18T00:48:15;-4.80;99.90
3701;DHT22;1866;48.374;10.766;2022-12-18T00:50:47;-4.90;99.90
3701;DHT22;1866;48.374;10.766;2022-12-18T00:53:15;-4.90;99.90
3701;DHT22;1866;48.374;10.766;2022-12-18T00:55:56;-4.80;99.90
3701;DHT22;1866;48.374;10.766;2022-12-18T00:58:27;-4.50;99.90
3701;DHT22;1866;48.374;10.766;2022-12-18T01:01:08;-4.50;99.90
3701;DHT22;1866;48.374;10.766;2022-12-18T01:03:35;-4.50;99.90
3701;DHT22;1866;48.374;10.766;2022-12-18T01:06:08;-4.60;99.90
3701;DHT22;1866;48.374;10.766;2022-12-18T01:08:36;-4.70;99.90
3701;DHT22;1866;48.374;10.766;2022-12-18T01:11:15;-4.80;99.90
3701;DHT22;1866;48.374;10.766;2022-12-18T01:13:45;-4.90;99.90
3701;DHT22;1866;48.374;10.766;2022-12-18T01:16:13;-4.80;99.90
3701;DHT22;1866;48.374;10.766;2022-12-18T01:19:00;-4.70;99.90
3701;DHT22;1866;48.374;10.766;2022-12-18T01:21:28;-4.70;99.90
3701;DHT22;1866;48.374;10.766;2022-12-18T01:23:58;-4.80;99.90
3701;DHT22;1866;48.374;10.766;2022-12-18T01:26:28;-4.60;99.90
3701;DHT22;1866;48.374;10.766;2022-12-18T01:28:56;-4.30;99.90
3701;DHT22;1866;48.374;10.766;2022-12-18T01:31:25;-4.40;99.90
3701;DHT22;1866;48.374;10.766;2022-12-18T01:34:21;-4.50;99.90
3701;DHT22;1866;48.374;10.766;2022-12-18T01:36:48;-4.60;99.90
3701;DHT22;1866;48.374;10.766;2022-12-18T01:39:24;-4.50;99.90
3701;DHT22;1866;48.374;10.766;2022-12-18T01:42:11;-4.50;99.90
3701;DHT22;1866;48.374;10.766;2022-12-18T01:44:59;-4.40;99.90
3701;DHT22;1866;48.374;10.766;2022-12-18T01:47:30;-4.40;99.90
3701;DHT22;1866;48.374;10.766;2022-12-18T01:50:07;-4.60;99.90
3701;DHT22;1866;48.374;10.766;2022-12-18T01:52:46;-4.50;99.90
3701;DHT22;1866;48.374;10.766;2022-12-18T01:55:26;-4.60;99.90
3701;DHT22;1866;48.374;10.766;2022-12-18T01:58:12;-4.70;99.90
3701;DHT22;1866;48.374;10.766;2022-12-18T02:00:48;-4.50;99.90
3701;DHT22;1866;48.374;10.766;2022-12-18T02:03:34;-4.70;99.90
3701;DHT22;1866;48.374;10.766;2022-12-18T02:06:07;-4.90;99.90
3701;DHT22;1866;48.374;10.766;2022-12-18T02:08:43;-4.80;99.90
3701;DHT22;1866;48.374;10.766;2022-12-18T02:11:35;-4.80;99.90
3701;DHT22;1866;48.374;10.766;2022-12-18T02:14:23;-4.70;99.90
3701;DHT22;1866;48.374;10.766;2022-12-18T02:17:07;-4.90;99.90
3701;DHT22;1866;48.374;10.766;2022-12-18T02:19:55;-5.00;99.90
3701;DHT22;1866;48.374;10.766;2022-12-18T02:22:32;-5.00;99.90
3701;DHT22;1866;48.374;10.766;2022-12-18T02:25:24;-5.10;99.90
3701;DHT22;1866;48.374;10.766;2022-12-18T02:28:11;-5.10;99.90
3701;DHT22;1866;48.374;10.766;2022-12-18T02:30:46;-5.10;99.90
3701;DHT22;1866;48.374;10.766;2022-12-18T02:33:14;-4.90;99.90
3701;DHT22;1866;48.374;10.766;2022-12-18T02:35:43;-5.00;99.90
3701;DHT22;1866;48.374;10.766;2022-12-18T02:38:11;-5.10;99.90
3701;DHT22;1866;48.374;10.766;2022-12-18T02:40:39;-5.20;99.90
3701;DHT22;1866;48.374;10.766;2022-12-18T02:43:10;-5.20;99.90
3701;DHT22;1866;48.374;10.766;2022-12-18T02:45:47;-5.20;99.90
3701;DHT22;1866;48.374;10.766;2022-12-18T02:48:16;-5.20;99.90
3701;DHT22;1866;48.374;10.766;2022-12-18T02:50:56;-5.20;99.90
3701;DHT22;1866;48.374;10.766;2022-12-18T02:53:28;-5.20;99.90
3701;DHT22;1866;48.374;10.766;2022-12-18T02:56:09;-5.20;99.90
3701;DHT22;1866;48.374;10.766;2022-12-18T02:58:59;-5.10;99.90
3701;DHT22;1866;48.374;10.766;2022-12-18T03:01:49;-5.20;99.90
3701;DHT22;1866;48.374;10.766;2022-12-18T03:04:32;-5.20;99.90
3701;DHT22;1866;48.374;10.766;2022-12-18T03:07:23;-5.20;99.90
3701;DHT22;1866;48.374;10.766;2022-12-18T03:09:56;-5.30;99.90
3701;DHT22;1866;48.374;10.766;2022-12-18T03:12:37;-5.30;99.90
3701;DHT22;1866;48.374;10.766;2022-12-18T03:15:10;-5.30;99.90
3701;DHT22;1866;48.374;10.766;2022-12-18T03:17:42;-5.40;99.90
3701;DHT22;1866;48.374;10.766;2022-12-18T03:23:32;-5.40;99.90
3701;DHT22;1866;48.374;10.766;2022-12-18T03:26:09;-5.40;99.90
3701;DHT22;1866;48.374;10.766;2022-12-18T03:28:49;-5.40;99.90
3701;DHT22;1866;48.374;10.766;2022-12-18T03:31:21;-5.30;99.90
3701;DHT22;1866;48.374;10.766;2022-12-18T03:33:58;-5.30;99.90
3701;DHT22;1866;48.374;10.766;2022-12-18T03:36:48;-5.30;99.90
3701;DHT22;1866;48.374;10.766;2022-12-18T03:39:29;-5.10;99.90
3701;DHT22;1866;48.374;10.766;2022-12-18T03:42:17;-5.30;99.90
3701;DHT22;1866;48.374;10.766;2022-12-18T03:44:52;-5.30;99.90
3701;DHT22;1866;48.374;10.766;2022-12-18T03:47:26;-5.10;99.90
3701;DHT22;1866;48.374;10.766;2022-12-18T03:49:57;-5.20;99.90
3701;DHT22;1866;48.374;10.766;2022-12-18T03:52:42;-5.00;99.90
3701;DHT22;1866;48.374;10.766;2022-12-18T03:55:13;-5.30;99.90
3701;DHT22;1866;48.374;10.766;2022-12-18T03:58:01;-5.20;99.90
3701;DHT22;1866;48.374;10.766;2022-12-18T04:00:31;-5.20;99.90
3701;DHT22;1866;48.374;10.766;2022-12-18T04:03:07;-5.30;99.90
3701;DHT22;1866;48.374;10.766;2022-12-18T04:05:44;-5.40;99.90
3701;DHT22;1866;48.374;10.766;2022-12-18T04:08:25;-5.30;99.90
3701;DHT22;1866;48.374;10.766;2022-12-18T04:11:16;-5.40;99.90
3701;DHT22;1866;48.374;10.766;2022-12-18T04:13:45;-5.40;99.90
3701;DHT22;1866;48.374;10.766;2022-12-18T04:16:16;-5.30;99.90
3701;DHT22;1866;48.374;10.766;2022-12-18T04:18:44;-5.20;99.90
3701;DHT22;1866;48.374;10.766;2022-12-18T04:21:11;-5.10;99.90
3701;DHT22;1866;48.374;10.766;2022-12-18T04:23:38;-5.10;99.90
3701;DHT22;1866;48.374;10.766;2022-12-18T04:26:06;-5.10;99.90
3701;DHT22;1866;48.374;10.766;2022-12-18T04:28:57;-5.00;99.90
3701;DHT22;1866;48.374;10.766;2022-12-18T04:31:27;-5.20;99.90
3701;DHT22;1866;48.374;10.766;2022-12-18T04:33:56;-5.30;99.90
3701;DHT22;1866;48.374;10.766;2022-12-18T04:36:30;-5.20;99.90
3701;DHT22;1866;48.374;10.766;2022-12-18T04:38:57;-5.20;99.90
3701;DHT22;1866;48.374;10.766;2022-12-18T04:41:25;-5.00;99.90
3701;DHT22;1866;48.374;10.766;2022-12-18T04:43:52;-5.00;99.90
3701;DHT22;1866;48.374;10.766;2022-12-18T04:46:20;-5.10;99.90
3701;DHT22;1866;48.374;10.766;2022-12-18T04:48:47;-4.80;99.90
3701;DHT22;1866;48.374;10.766;2022-12-18T04:51:15;-5.00;99.90
3701;DHT22;1866;48.374;10.766;2022-12-18T04:53:42;-5.20;99.90
3701;DHT22;1866;48.374;10.766;2022-12-18T04:56:17;-5.30;99.90
3701;DHT22;1866;48.374;10.766;2022-12-18T04:58:55;-5.30;99.90
3701;DHT22;1866;48.374;10.766;2022-12-18T05:01:30;-5.20;99.90
3701;DHT22;1866;48.374;10.766;2022-12-18T05:04:20;-5.30;99.90
3701;DHT22;1866;48.374;10.766;2022-12-18T05:06:50;-5.30;99.90
3701;DHT22;1866;48.374;10.766;2022-12-18T05:09:29;-5.40;99.90
3701;DHT22;1866;48.374;10.766;2022-12-18T05:11:58;-5.20;99.90
3701;DHT22;1866;48.374;10.766;2022-12-18T05:17:45;-5.30;99.90
3701;DHT22;1866;48.374;10.766;2022-12-18T05:20:11;-5.30;99.90
3701;DHT22;1866;48.374;10.766;2022-12-18T05:22:40;-5.40;99.90
3701;DHT22;1866;48.374;10.766;2022-12-18T05:25:34;-5.30;99.90
3701;DHT22;1866;48.374;10.766;2022-12-18T05:28:01;-5.30;99.90
3701;DHT22;1866;48.374;10.766;2022-12-18T05:30:34;-5.20;99.90
3701;DHT22;1866;48.374;10.766;2022-12-18T05:33:24;-5.30;99.90
3701;DHT22;1866;48.374;10.766;2022-12-18T05:35:52;-5.40;99.90
3701;DHT22;1866;48.374;10.766;2022-12-18T05:38:22;-5.30;99.90
3701;DHT22;1866;48.374;10.766;2022-12-18T05:40:52;-5.30;99.90
3701;DHT22;1866;48.374;10.766;2022-12-18T05:43:26;-5.30;99.90
3701;DHT22;1866;48.374;10.766;2022-12-18T05:45:54;-5.40;99.90
3701;DHT22;1866;48.374;10.766;2022-12-18T05:48:23;-5.40;99.90
3701;DHT22;1866;48.374;10.766;2022-12-18T05:51:04;-5.20;99.90
3701;DHT22;1866;48.374;10.766;2022-12-18T05:53:33;-5.40;99.90
3701;DHT22;1866;48.374;10.766;2022-12-18T05:56:01;-5.40;99.90
3701;DHT22;1866;48.374;10.766;2022-12-18T05:58:28;-5.30;99.90
3701;DHT22;1866;48.374;10.766;2022-12-18T06:00:55;-5.40;99.90
3701;DHT22;1866;48.374;10.766;2022-12-18T06:03:23;-5.40;99.90
3701;DHT22;1866;48.374;10.766;2022-12-18T06:05:53;-5.40;99.90
3701;DHT22;1866;48.374;10.766;2022-12-18T06:08:20;-5.40;99.90
3701;DHT22;1866;48.374;10.766;2022-12-18T06:10:52;-5.40;99.90
3701;DHT22;1866;48.374;10.766;2022-12-18T06:13:19;-5.30;99.90
3701;DHT22;1866;48.374;10.766;2022-12-18T06:15:47;-5.30;99.90
3701;DHT22;1866;48.374;10.766;2022-12-18T06:18:14;-5.20;99.90
3701;DHT22;1866;48.374;10.766;2022-12-18T06:21:01;-5.20;99.90
3701;DHT22;1866;48.374;10.766;2022-12-18T06:23:41;-5.20;99.90
3701;DHT22;1866;48.374;10.766;2022-12-18T06:26:13;-5.30;99.90
3701;DHT22;1866;48.374;10.766;2022-12-18T06:28:46;-5.30;99.90
3701;DHT22;1866;48.374;10.766;2022-12-18T06:31:13;-5.40;99.90
3701;DHT22;1866;48.374;10.766;2022-12-18T06:33:41;-5.30;99.90
3701;DHT22;1866;48.374;10.766;2022-12-18T06:36:10;-5.40;99.90
3701;DHT22;1866;48.374;10.766;2022-12-18T06:38:39;-5.30;99.90
3701;DHT22;1866;48.374;10.766;2022-12-18T06:41:07;-5.30;99.90
3701;DHT22;1866;48.374;10.766;2022-12-18T06:43:43;-5.30;99.90
3701;DHT22;1866;48.374;10.766;2022-12-18T06:46:16;-5.30;99.90
3701;DHT22;1866;48.374;10.766;2022-12-18T06:48:45;-5.30;99.90
3701;DHT22;1866;48.374;10.766;2022-12-18T06:51:20;-5.30;99.90
3701;DHT22;1866;48.374;10.766;2022-12-18T06:53:48;-5.20;99.90
3701;DHT22;1866;48.374;10.766;2022-12-18T06:56:15;-5.20;99.90
3701;DHT22;1866;48.374;10.766;2022-12-18T06:58:45;-5.10;99.90
3701;DHT22;1866;48.374;10.766;2022-12-18T07:01:26;-5.00;99.90
3701;DHT22;1866;48.374;10.766;2022-12-18T07:03:56;-5.20;99.90
3701;DHT22;1866;48.374;10.766;2022-12-18T07:06:34;-5.30;99.90
3701;DHT22;1866;48.374;10.766;2022-12-18T07:09:01;-5.30;99.90
3701;DHT22;1866;48.374;10.766;2022-12-18T07:11:28;-5.30;99.90
3701;DHT22;1866;48.374;10.766;2022-12-18T07:13:59;-5.30;99.90
3701;DHT22;1866;48.374;10.766;2022-12-18T07:16:30;-5.30;99.90
3701;DHT22;1866;48.374;10.766;2022-12-18T07:18:56;-5.20;99.90
3701;DHT22;1866;48.374;10.766;2022-12-18T07:21:24;-5.30;99.90
3701;DHT22;1866;48.374;10.766;2022-12-18T07:24:00;-5.40;99.90
3701;DHT22;1866;48.374;10.766;2022-12-18T07:26:39;-5.40;99.90
3701;DHT22;1866;48.374;10.766;2022-12-18T07:29:21;-5.20;99.90
3701;DHT22;1866;48.374;10.766;2022-12-18T07:31:49;-5.10;99.90
3701;DHT22;1866;48.374;10.766;2022-12-18T07:34:25;-5.10;99.90
3701;DHT22;1866;48.374;10.766;2022-12-18T07:36:52;-5.10;99.90
3701;DHT22;1866;48.374;10.766;2022-12-18T07:39:21;-5.20;99.90
3701;DHT22;1866;48.374;10.766;2022-12-18T07:42:01;-5.20;99.90
3701;DHT22;1866;48.374;10.766;2022-12-18T07:45:06;-5.30;99.90
3701;DHT22;1866;48.374;10.766;2022-12-18T07:47:34;-5.00;99.90
3701;DHT22;1866;48.374;10.766;2022-12-18T07:50:11;-5.10;99.90
3701;DHT22;1866;48.374;10.766;2022-12-18T07:52:50;-5.00;99.90
3701;DHT22;1866;48.374;10.766;2022-12-18T07:55:17;-5.10;99.90
3701;DHT22;1866;48.374;10.766;2022-12-18T07:58:01;-5.10;99.90
3701;DHT22;1866;48.374;10.766;2022-12-18T08:00:34;-5.10;99.90
3701;DHT22;1866;48.374;10.766;2022-12-18T08:03:19;-5.00;99.90
3701;DHT22;1866;48.374;10.766;2022-12-18T08:05:58;-5.00;99.90
3701;DHT22;1866;48.374;10.766;2022-12-18T08:08:26;-5.10;99.90
3701;DHT22;1866;48.374;10.766;2022-12-18T08:10:56;-5.20;99.90
3701;DHT22;1866;48.374;10.766;2022-12-18T08:13:45;-5.20;99.90
3701;DHT22;1866;48.374;10.766;2022-12-18T08:16:27;-5.20;99.90
3701;DHT22;1866;48.374;10.766;2022-12-18T08:18:54;-5.20;99.90
3701;DHT22;1866;48.374;10.766;2022-12-18T08:21:31;-5.20;99.90
3701;DHT22;1866;48.374;10.766;2022-12-18T08:24:11;-5.10;99.90
3701;DHT22;1866;48.374;10.766;2022-12-18T08:26:43;-5.10;99.90
3701;DHT22;1866;48.374;10.766;2022-12-18T08:29:34;-5.10;99.90
3701;DHT22;1866;48.374;10.766;2022-12-18T08:32:23;-5.00;99.90
3701;DHT22;1866;48.374;10.766;2022-12-18T08:35:14;-4.90;99.90
3701;DHT22;1866;48.374;10.766;2022-12-18T08:37:55;-4.80;99.90
3701;DHT22;1866;48.374;10.766;2022-12-18T08:40:29;-4.70;99.90
3701;DHT22;1866;48.374;10.766;2022-12-18T08:43:27;-4.90;99.90
3701;DHT22;1866;48.374;10.766;2022-12-18T08:46:18;-4.70;99.90
3701;DHT22;1866;48.374;10.766;2022-12-18T08:49:04;-4.80;99.90
3701;DHT22;1866;48.374;10.766;2022-12-18T08:51:33;-4.80;99.90
3701;DHT22;1866;48.374;10.766;2022-12-18T08:54:02;-4.60;99.90
3701;DHT22;1866;48.374;10.766;2022-12-18T08:56:29;-4.70;99.90
3701;DHT22;1866;48.374;10.766;2022-12-18T08:58:57;-4.60;99.90
3701;DHT22;1866;48.374;10.766;2022-12-18T09:01:24;-4.80;99.90
3701;DHT22;1866;48.374;10.766;2022-12-18T09:03:58;-4.60;99.90
3701;DHT22;1866;48.374;10.766;2022-12-18T09:06:28;-4.50;99.90
3701;DHT22;1866;48.374;10.766;2022-12-18T09:09:12;-4.50;99.90
3701;DHT22;1866;48.374;10.766;2022-12-18T09:11:55;-4.50;99.90
3701;DHT22;1866;48.374;10.766;2022-12-18T09:14:33;-4.60;99.90
3701;DHT22;1866;48.374;10.766;2022-12-18T09:17:14;-4.70;91.20
3701;DHT22;1866;48.374;10.766;2022-12-18T09:19:48;-4.70;99.00
3701;DHT22;1866;48.374;10.766;2022-12-18T09:22:17;-4.70;95.90
3701;DHT22;1866;48.374;10.766;2022-12-18T09:24:57;-4.70;95.00
3701;DHT22;1866;48.374;10.766;2022-12-18T09:27:46;-4.70;97.30
3701;DHT22;1866;48.374;10.766;2022-12-18T09:30:22;-4.70;92.40
3701;DHT22;1866;48.374;10.766;2022-12-18T09:33:01;-4.70;96.30
3701;DHT22;1866;48.374;10.766;2022-12-18T09:35:29;-4.70;93.60
3701;DHT22;1866;48.374;10.766;2022-12-18T09:38:15;-4.60;99.20
3701;DHT22;1866;48.374;10.766;2022-12-18T09:40:57;-4.60;96.80
3701;DHT22;1866;48.374;10.766;2022-12-18T09:43:29;-4.70;92.00
3701;DHT22;1866;48.374;10.766;2022-12-18T09:46:10;-4.60;97.90
3701;DHT22;1866;48.374;10.766;2022-12-18T09:48:57;-4.60;94.50
3701;DHT22;1866;48.374;10.766;2022-12-18T09:51:40;-4.40;99.50
3701;DHT22;1866;48.374;10.766;2022-12-18T09:54:33;-4.40;80.60
3701;DHT22;1866;48.374;10.766;2022-12-18T09:57:04;-4.30;88.50
3701;DHT22;1866;48.374;10.766;2022-12-18T09:59:36;-4.10;83.30
3701;DHT22;1866;48.374;10.766;2022-12-18T10:02:23;-4.00;76.80
3701;DHT22;1866;48.374;10.766;2022-12-18T10:05:10;-4.00;56.60
3701;DHT22;1866;48.374;10.766;2022-12-18T10:08:05;-4.20;23.00
3701;DHT22;1866;48.374;10.766;2022-12-18T10:10:42;-4.00;24.90
3701;DHT22;1866;48.374;10.766;2022-12-18T10:13:28;-3.90;18.10
3701;DHT22;1866;48.374;10.766;2022-12-18T10:16:11;-3.90;8.20
3701;DHT22;1866;48.374;10.766;2022-12-18T10:19:01;-3.80;6.20
3701;DHT22;1866;48.374;10.766;2022-12-18T10:21:41;-3.70;1.00
3701;DHT22;1866;48.374;10.766;2022-12-18T10:24:17;-3.80;1.00
3701;DHT22;1866;48.374;10.766;2022-12-18T10:27:04;-3.90;1.00
3701;DHT22;1866;48.374;10.766;2022-12-18T10:29:54;-3.80;1.00
3701;DHT22;1866;48.374;10.766;2022-12-18T10:32:31;-3.80;1.00
3701;DHT22;1866;48.374;10.766;2022-12-18T10:35:25;-3.90;1.00
3701;DHT22;1866;48.374;10.766;2022-12-18T10:38:20;-4.10;1.00
3701;DHT22;1866;48.374;10.766;2022-12-18T10:40:58;-4.40;1.00
3701;DHT22;1866;48.374;10.766;2022-12-18T10:43:37;-4.20;1.00
3701;DHT22;1866;48.374;10.766;2022-12-18T10:46:20;-4.00;1.00
3701;DHT22;1866;48.374;10.766;2022-12-18T10:48:57;-4.00;1.00
3701;DHT22;1866;48.374;10.766;2022-12-18T10:51:27;-4.00;1.00
3701;DHT22;1866;48.374;10.766;2022-12-18T10:54:04;-3.80;1.00
3701;DHT22;1866;48.374;10.766;2022-12-18T10:56:36;-4.00;1.00
3701;DHT22;1866;48.374;10.766;2022-12-18T10:59:08;-3.80;1.00
3701;DHT22;1866;48.374;10.766;2022-12-18T11:02:07;-3.80;1.00
3701;DHT22;1866;48.374;10.766;2022-12-18T11:04:53;-3.70;1.00
3701;DHT22;1866;48.374;10.766;2022-12-18T11:07:47;-3.90;1.00
3701;DHT22;1866;48.374;10.766;2022-12-18T11:10:20;-4.20;1.00
3701;DHT22;1866;48.374;10.766;2022-12-18T11:13:10;-4.10;1.00
3701;DHT22;1866;48.374;10.766;2022-12-18T11:15:56;-4.30;1.00
3701;DHT22;1866;48.374;10.766;2022-12-18T11:18:30;-4.40;1.00
3701;DHT22;1866;48.374;10.766;2022-12-18T11:21:05;-4.20;1.00
3701;DHT22;1866;48.374;10.766;2022-12-18T11:23:33;-4.20;1.00
3701;DHT22;1866;48.374;10.766;2022-12-18T11:26:03;-4.00;1.00
3701;DHT22;1866;48.374;10.766;2022-12-18T11:28:36;-4.10;1.00
3701;DHT22;1866;48.374;10.766;2022-12-18T11:31:25;-4.00;1.00
3701;DHT22;1866;48.374;10.766;2022-12-18T11:34:16;-3.90;1.00
3701;DHT22;1866;48.374;10.766;2022-12-18T11:36:48;-4.00;1.00
3701;DHT22;1866;48.374;10.766;2022-12-18T11:39:31;-3.80;1.00
3701;DHT22;1866;48.374;10.766;2022-12-18T11:42:14;-3.80;1.00
3701;DHT22;1866;48.374;10.766;2022-12-18T11:44:54;-3.90;1.00
3701;DHT22;1866;48.374;10.766;2022-12-18T11:47:30;-3.80;1.00
3701;DHT22;1866;48.374;10.766;2022-12-18T11:50:18;-3.90;1.00
3701;DHT22;1866;48.374;10.766;2022-12-18T11:52:49;-3.80;1.00
3701;DHT22;1866;48.374;10.766;2022-12-18T11:55:24;-3.50;1.00
3701;DHT22;1866;48.374;10.766;2022-12-18T11:58:14;-3.40;1.00
3701;DHT22;1866;48.374;10.766;2022-12-18T12:01:03;-3.40;1.00
3701;DHT22;1866;48.374;10.766;2022-12-18T12:07:02;-3.30;1.00
3701;DHT22;1866;48.374;10.766;2022-12-18T12:09:50;-3.30;1.00
3701;DHT22;1866;48.374;10.766;2022-12-18T12:12:39;-3.20;1.00
3701;DHT22;1866;48.374;10.766;2022-12-18T12:15:38;-3.10;1.00
3701;DHT22;1866;48.374;10.766;2022-12-18T12:18:28;-3.20;1.00
3701;DHT22;1866;48.374;10.766;2022-12-18T12:21:12;-3.10;1.00
3701;DHT22;1866;48.374;10.766;2022-12-18T12:23:50;-3.20;1.00
3701;DHT22;1866;48.374;10.766;2022-12-18T12:26:24;-3.10;1.00
3701;DHT22;1866;48.374;10.766;2022-12-18T12:29:10;-3.20;1.00
3701;DHT22;1866;48.374;10.766;2022-12-18T12:32:02;-3.30;1.00
3701;DHT22;1866;48.374;10.766;2022-12-18T12:34:36;-3.20;1.00
3701;DHT22;1866;48.374;10.766;2022-12-18T12:37:17;-3.10;1.00
3701;DHT22;1866;48.374;10.766;2022-12-18T12:39:47;-3.40;1.00
3701;DHT22;1866;48.374;10.766;2022-12-18T12:42:20;-3.60;1.00
3701;DHT22;1866;48.374;10.766;2022-12-18T12:45:16;-3.80;1.00
3701;DHT22;1866;48.374;10.766;2022-12-18T12:47:45;-3.50;1.00
3701;DHT22;1866;48.374;10.766;2022-12-18T12:50:17;-3.30;1.00
3701;DHT22;1866;48.374;10.766;2022-12-18T12:52:51;-3.40;1.00
3701;DHT22;1866;48.374;10.766;2022-12-18T12:55:28;-3.40;1.00
3701;DHT22;1866;48.374;10.766;2022-12-18T12:58:33;-3.30;1.00
3701;DHT22;1866;48.374;10.766;2022-12-18T13:01:25;-3.30;1.00
3701;DHT22;1866;48.374;10.766;2022-12-18T13:04:12;-3.20;1.00
3701;DHT22;1866;48.374;10.766;2022-12-18T13:07:05;-3.30;1.00
3701;DHT22;1866;48.374;10.766;2022-12-18T13:11:26;-3.20;1.00
3701;DHT22;1866;48.374;10.766;2022-12-18T13:13:19;-3.30;1.00
3701;DHT22;1866;48.374;10.766;2022-12-18T13:15:47;-3.40;1.00
3701;DHT22;1866;48.374;10.766;2022-12-18T13:18:18;-3.20;1.00
3701;DHT22;1866;48.374;10.766;2022-12-18T13:20:47;-3.50;1.00
3701;DHT22;1866;48.374;10.766;2022-12-18T13:23:38;-3.60;1.00
3701;DHT22;1866;48.374;10.766;2022-12-18T13:26:33;-3.50;1.00
3701;DHT22;1866;48.374;10.766;2022-12-18T13:29:03;-3.50;1.00
3701;DHT22;1866;48.374;10.766;2022-12-18T13:31:59;-3.70;1.00
3701;DHT22;1866;48.374;10.766;2022-12-18T13:34:28;-3.50;1.00
3701;DHT22;1866;48.374;10.766;2022-12-18T13:37:34;-3.70;1.00
3701;DHT22;1866;48.374;10.766;2022-12-18T13:39:45;-3.80;1.00
3701;DHT22;1866;48.374;10.766;2022-12-18T13:42:34;-3.70;1.00
3701;DHT22;1866;48.374;10.766;2022-12-18T13:45:45;-3.50;1.00
3701;DHT22;1866;48.374;10.766;2022-12-18T13:48:21;-3.60;1.00
3701;DHT22;1866;48.374;10.766;2022-12-18T13:50:53;-3.50;1.00
3701;DHT22;1866;48.374;10.766;2022-12-18T13:53:23;-3.60;1.00
3701;DHT22;1866;48.374;10.766;2022-12-18T13:55:52;-3.80;1.00
3701;DHT22;1866;48.374;10.766;2022-12-18T13:58:19;-4.10;1.00
3701;DHT22;1866;48.374;10.766;2022-12-18T14:00:46;-4.20;1.00
3701;DHT22;1866;48.374;10.766;2022-12-18T14:03:19;-4.00;1.00
3701;DHT22;1866;48.374;10.766;2022-12-18T14:05:53;-4.00;11.00
3701;DHT22;1866;48.374;10.766;2022-12-18T14:08:21;-4.00;8.60
3701;DHT22;1866;48.374;10.766;2022-12-18T14:10:49;-3.90;14.40
3701;DHT22;1866;48.374;10.766;2022-12-18T14:13:24;-4.00;4.10
3701;DHT22;1866;48.374;10.766;2022-12-18T14:15:51;-3.90;15.50
3701;DHT22;1866;48.374;10.766;2022-12-18T14:18:21;-3.80;16.60
3701;DHT22;1866;48.374;10.766;2022-12-18T14:20:51;-3.80;8.50
3701;DHT22;1866;48.374;10.766;2022-12-18T14:23:30;-3.90;10.60
3701;DHT22;1866;48.374;10.766;2022-12-18T14:25:57;-3.90;6.10
3701;DHT22;1866;48.374;10.766;2022-12-18T14:28:27;-4.00;1.00
3701;DHT22;1866;48.374;10.766;2022-12-18T14:30:54;-4.00;13.00
3701;DHT22;1866;48.374;10.766;2022-12-18T14:33:23;-4.20;11.50
3701;DHT22;1866;48.374;10.766;2022-12-18T14:35:56;-4.20;15.30
3701;DHT22;1866;48.374;10.766;2022-12-18T14:38:29;-4.10;47.90
3701;DHT22;1866;48.374;10.766;2022-12-18T14:40:58;-4.10;45.20
3701;DHT22;1866;48.374;10.766;2022-12-18T14:43:28;-4.20;40.50
3701;DHT22;1866;48.374;10.766;2022-12-18T14:45:55;-4.10;52.40
3701;DHT22;1866;48.374;10.766;2022-12-18T14:48:34;-4.00;60.00
3701;DHT22;1866;48.374;10.766;2022-12-18T14:51:03;-4.10;43.50
3701;DHT22;1866;48.374;10.766;2022-12-18T14:53:35;-4.00;53.80
3701;DHT22;1866;48.374;10.766;2022-12-18T14:56:03;-4.20;41.20
3701;DHT22;1866;48.374;10.766;2022-12-18T14:58:38;-4.20;61.20
3701;DHT22;1866;48.374;10.766;2022-12-18T15:01:06;-4.00;88.20
3701;DHT22;1866;48.374;10.766;2022-12-18T15:03:33;-4.00;53.70
3701;DHT22;1866;48.374;10.766;2022-12-18T15:06:15;-4.10;45.00
3701;DHT22;1866;48.374;10.766;2022-12-18T15:08:42;-4.10;58.00
3701;DHT22;1866;48.374;10.766;2022-12-18T15:11:26;-4.10;42.10
3701;DHT22;1866;48.374;10.766;2022-12-18T15:13:54;-4.30;32.80
3701;DHT22;1866;48.374;10.766;2022-12-18T15:16:21;-4.00;82.20
3701;DHT22;1866;48.374;10.766;2022-12-18T15:18:48;-4.30;43.60
3701;DHT22;1866;48.374;10.766;2022-12-18T15:21:18;-4.50;82.20
3701;DHT22;1866;48.374;10.766;2022-12-18T15:23:48;-4.70;73.20
3701;DHT22;1866;48.374;10.766;2022-12-18T15:26:17;-4.60;98.10
3701;DHT22;1866;48.374;10.766;2022-12-18T15:28:45;-4.50;99.90
3701;DHT22;1866;48.374;10.766;2022-12-18T15:31:29;-4.60;99.90
3701;DHT22;1866;48.374;10.766;2022-12-18T15:34:09;-4.70;99.90
3701;DHT22;1866;48.374;10.766;2022-12-18T15:36:39;-4.60;99.90
3701;DHT22;1866;48.374;10.766;2022-12-18T15:39:06;-4.60;99.90
3701;DHT22;1866;48.374;10.766;2022-12-18T15:41:35;-4.40;99.90
3701;DHT22;1866;48.374;10.766;2022-12-18T15:44:15;-4.60;99.90
3701;DHT22;1866;48.374;10.766;2022-12-18T15:46:47;-4.50;99.90
3701;DHT22;1866;48.374;10.766;2022-12-18T15:49:15;-4.40;99.90
3701;DHT22;1866;48.374;10.766;2022-12-18T15:51:42;-4.40;99.90
3701;DHT22;1866;48.374;10.766;2022-12-18T15:54:13;-4.60;99.90
3701;DHT22;1866;48.374;10.766;2022-12-18T15:56:41;-4.50;99.90
3701;DHT22;1866;48.374;10.766;2022-12-18T15:59:26;-4.50;99.90
3701;DHT22;1866;48.374;10.766;2022-12-18T16:01:55;-4.70;99.90
3701;DHT22;1866;48.374;10.766;2022-12-18T16:04:22;-4.60;99.90
3701;DHT22;1866;48.374;10.766;2022-12-18T16:06:50;-4.60;99.90
3701;DHT22;1866;48.374;10.766;2022-12-18T16:09:18;-4.70;99.90
3701;DHT22;1866;48.374;10.766;2022-12-18T16:11:45;-4.60;99.90
3701;DHT22;1866;48.374;10.766;2022-12-18T16:14:19;-4.50;99.90
3701;DHT22;1866;48.374;10.766;2022-12-18T16:16:48;-4.50;99.90
3701;DHT22;1866;48.374;10.766;2022-12-18T16:19:16;-4.70;99.90
3701;DHT22;1866;48.374;10.766;2022-12-18T16:21:44;-4.80;99.90
3701;DHT22;1866;48.374;10.766;2022-12-18T16:24:15;-4.70;99.90
3701;DHT22;1866;48.374;10.766;2022-12-18T16:26:42;-4.70;99.90
3701;DHT22;1866;48.374;10.766;2022-12-18T16:29:10;-4.70;99.90
3701;DHT22;1866;48.374;10.766;2022-12-18T16:31:37;-4.80;99.90
3701;DHT22;1866;48.374;10.766;2022-12-18T16:34:11;-4.80;99.90
3701;DHT22;1866;48.374;10.766;2022-12-18T16:36:39;-4.70;99.90
3701;DHT22;1866;48.374;10.766;2022-12-18T16:39:06;-4.70;99.90
3701;DHT22;1866;48.374;10.766;2022-12-18T16:41:33;-4.70;99.90
3701;DHT22;1866;48.374;10.766;2022-12-18T16:44:01;-4.60;99.90
3701;DHT22;1866;48.374;10.766;2022-12-18T16:46:29;-4.60;99.90
3701;DHT22;1866;48.374;10.766;2022-12-18T16:48:57;-4.70;99.90
3701;DHT22;1866;48.374;10.766;2022-12-18T16:51:24;-4.80;99.90
3701;DHT22;1866;48.374;10.766;2022-12-18T16:53:52;-4.90;99.90
3701;DHT22;1866;48.374;10.766;2022-12-18T16:56:19;-4.90;99.90